createdAt,value
2023-03-01T00:00:26.485Z,83.15
2023-03-01T00:02:56.328Z,83.09
2023-03-01T00:05:28.461Z,83.12
2023-03-01T00:08:00.194Z,83.08
2023-03-01T00:10:33.616Z,83.63
2023-03-01T00:13:02.150Z,83.34
2023-03-01T00:15:32.619Z,83.07
2023-03-01T00:18:01.002Z,82.62
2023-03-01T00:20:33.585Z,82.62
2023-03-01T00:23:03.557Z,83.06
2023-03-01T00:25:32.650Z,82.75
2023-03-01T00:28:02.118Z,82.68
2023-03-01T00:30:32.077Z,82.14
2023-03-01T00:33:04.211Z,82.41
2023-03-01T00:35:34.432Z,82.31
2023-03-01T00:38:03.551Z,82.02
2023-03-01T00:40:42.624Z,82.03
2023-03-01T00:43:20.869Z,82.26
2023-03-01T00:48:01.719Z,82.01
2023-03-01T00:50:30.738Z,81.56
2023-03-01T00:52:59.250Z,81.59
2023-03-01T00:55:27.857Z,81.74
2023-03-01T00:58:06.502Z,81.43
2023-03-01T01:00:39.322Z,81.13
2023-03-01T01:03:08.138Z,81.29
2023-03-01T01:05:37.202Z,81.59
2023-03-01T01:08:07.204Z,81.35
2023-03-01T01:10:42.049Z,81.17
2023-03-01T01:13:14.940Z,81.33
2023-03-01T01:15:43.724Z,81.62
2023-03-01T01:18:12.185Z,81.38
2023-03-01T01:20:41.495Z,81.17
2023-03-01T01:23:10.386Z,81.23
2023-03-01T01:25:48.409Z,81.34
2023-03-01T01:28:18.139Z,81.06
2023-03-01T01:30:56.093Z,81.09
2023-03-01T01:33:24.473Z,81.27
2023-03-01T01:35:53.577Z,81.64
2023-03-01T01:38:22.745Z,81.48
2023-03-01T01:40:52.450Z,81.42
2023-03-01T01:43:27.231Z,81.70
2023-03-01T01:46:00.912Z,81.82
2023-03-01T01:48:57.527Z,82.24
2023-03-01T01:51:30.229Z,81.65
2023-03-01T01:54:04.646Z,81.46
2023-03-01T01:56:45.468Z,81.61
2023-03-01T01:59:13.822Z,81.96
2023-03-01T02:01:42.580Z,82.03
2023-03-01T02:04:13.992Z,81.72
2023-03-01T02:06:59.127Z,82.03
2023-03-01T02:09:27.353Z,82.32
2023-03-01T02:12:08.417Z,82.49
2023-03-01T02:14:40.953Z,82.51
2023-03-01T02:17:10.843Z,82.55
2023-03-01T02:19:51.558Z,82.89
2023-03-01T02:22:22.270Z,83.11
2023-03-01T02:25:25.817Z,82.91
2023-03-01T02:28:15.181Z,82.75
2023-03-01T02:31:05.223Z,83.04
2023-03-01T02:33:37.360Z,83.40
2023-03-01T02:36:14.687Z,83.16
2023-03-01T02:38:57.468Z,82.93
2023-03-01T02:41:29.045Z,82.62
2023-03-01T02:44:01.494Z,83.10
2023-03-01T02:46:31.585Z,83.09
2023-03-01T02:49:00.863Z,82.99
2023-03-01T02:51:53.094Z,82.98
2023-03-01T02:54:48.864Z,83.11
2023-03-01T02:57:18.018Z,83.34
2023-03-01T02:59:47.432Z,83.04
2023-03-01T03:02:39.833Z,83.00
2023-03-01T03:05:18.812Z,83.26
2023-03-01T03:07:59.912Z,83.35
2023-03-01T03:10:33.928Z,83.25
2023-03-01T03:13:06.126Z,83.04
2023-03-01T03:15:37.263Z,82.79
2023-03-01T03:18:12.410Z,83.23
2023-03-01T03:20:42.105Z,83.13
2023-03-01T03:23:11.108Z,83.14
2023-03-01T03:25:43.754Z,83.05
2023-03-01T03:28:13.070Z,82.68
2023-03-01T03:30:51.546Z,82.78
2023-03-01T03:33:21.193Z,82.89
2023-03-01T03:35:51.056Z,82.96
2023-03-01T03:38:23.381Z,82.92
2023-03-01T03:41:05.536Z,82.63
2023-03-01T03:43:46.915Z,83.06
2023-03-01T03:46:36.584Z,83.26
2023-03-01T03:49:07.500Z,83.51
2023-03-01T03:51:36.841Z,83.37
2023-03-01T03:54:05.438Z,83.12
2023-03-01T03:56:38.008Z,83.17
2023-03-01T03:59:12.617Z,83.19
2023-03-01T04:01:40.959Z,83.77
2023-03-01T04:04:13.396Z,83.88
2023-03-01T04:06:42.075Z,83.64
2023-03-01T04:09:11.797Z,83.42
2023-03-01T04:11:43.364Z,83.48
2023-03-01T04:14:19.509Z,83.47
2023-03-01T04:16:50.692Z,83.69
2023-03-01T04:19:19.701Z,83.78
2023-03-01T04:21:51.362Z,83.83
2023-03-01T04:24:25.965Z,83.75
2023-03-01T04:26:55.388Z,84.10
2023-03-01T04:29:26.700Z,84.39
2023-03-01T04:32:00.590Z,84.28
2023-03-01T04:34:36.254Z,83.94
2023-03-01T04:37:10.117Z,83.76
2023-03-01T04:39:48.783Z,83.56
2023-03-01T04:42:24.380Z,84.04
2023-03-01T04:44:53.578Z,83.78
2023-03-01T04:47:31.433Z,83.72
2023-03-01T04:50:05.016Z,83.52
2023-03-01T04:52:36.497Z,83.59
2023-03-01T04:55:06.137Z,83.69
2023-03-01T04:57:37.730Z,83.43
2023-03-01T05:00:21.610Z,83.21
2023-03-01T05:02:54.703Z,83.16
2023-03-01T05:05:32.263Z,83.35
2023-03-01T05:08:26.028Z,83.53
2023-03-01T05:11:01.782Z,83.07
2023-03-01T05:13:46.952Z,83.01
2023-03-01T05:16:15.507Z,83.05
2023-03-01T05:18:52.964Z,83.36
2023-03-01T05:21:25.229Z,83.09
2023-03-01T05:23:59.856Z,82.50
2023-03-01T05:26:29.974Z,82.48
2023-03-01T05:29:00.626Z,82.75
2023-03-01T05:31:33.181Z,82.75
2023-03-01T05:34:04.961Z,82.66
2023-03-01T05:36:33.779Z,82.48
2023-03-01T05:39:03.334Z,82.51
2023-03-01T05:41:32.843Z,82.67
2023-03-01T05:44:01.934Z,82.41
2023-03-01T05:46:39.225Z,81.84
2023-03-01T05:49:08.421Z,82.02
2023-03-01T05:51:39.163Z,82.32
2023-03-01T05:54:08.253Z,82.30
2023-03-01T05:56:37.791Z,81.89
2023-03-01T05:59:07.271Z,81.79
2023-03-01T06:01:39.413Z,81.60
2023-03-01T06:04:08.860Z,82.08
2023-03-01T06:06:40.769Z,82.18
2023-03-01T06:09:11.055Z,82.26
2023-03-01T06:11:47.762Z,82.00
2023-03-01T06:14:16.248Z,82.05
2023-03-01T06:16:50.662Z,82.36
2023-03-01T06:19:21.789Z,82.00
2023-03-01T06:21:50.187Z,81.83
2023-03-01T06:24:18.689Z,81.83
2023-03-01T06:26:47.170Z,82.28
2023-03-01T06:29:16.143Z,82.08
2023-03-01T06:31:47.084Z,82.20
2023-03-01T06:34:24.806Z,81.59
2023-03-01T06:36:53.670Z,81.73
2023-03-01T06:39:24.627Z,82.16
2023-03-01T06:41:56.369Z,82.33
2023-03-01T06:44:24.849Z,82.42
2023-03-01T06:46:53.668Z,82.87
2023-03-01T06:49:22.329Z,82.91
2023-03-01T06:51:52.965Z,83.65
2023-03-01T06:54:23.383Z,83.78
2023-03-01T06:56:52.293Z,84.01
2023-03-01T06:59:21.164Z,83.91
2023-03-01T07:01:50.618Z,84.23
2023-03-01T07:04:19.253Z,84.32
2023-03-01T07:06:56.346Z,84.07
2023-03-01T07:09:32.085Z,84.19
2023-03-01T07:12:04.152Z,83.74
2023-03-01T07:14:41.273Z,83.83
2023-03-01T07:17:10.540Z,83.43
2023-03-01T07:19:39.022Z,82.90
2023-03-01T07:22:16.733Z,82.44
2023-03-01T07:24:45.929Z,82.48
2023-03-01T07:27:15.232Z,82.66
2023-03-01T07:29:46.054Z,81.81
2023-03-01T07:32:17.469Z,81.76
2023-03-01T07:34:47.704Z,81.99
2023-03-01T07:37:25.603Z,82.29
2023-03-01T07:40:06.469Z,82.19
2023-03-01T07:42:35.136Z,81.74
2023-03-01T07:45:23.490Z,81.59
2023-03-01T07:47:53.912Z,81.49
2023-03-01T07:50:23.202Z,81.57
2023-03-01T07:52:52.361Z,81.43
2023-03-01T07:55:21.571Z,81.17
2023-03-01T07:57:52.185Z,80.97
2023-03-01T08:00:21.289Z,80.84
2023-03-01T08:02:50.083Z,80.33
2023-03-01T08:05:28.023Z,79.92
2023-03-01T08:07:58.512Z,79.46
2023-03-01T08:10:35.494Z,78.90
2023-03-01T08:13:04.087Z,78.76
2023-03-01T08:15:33.280Z,78.86
2023-03-01T08:18:05.356Z,78.48
2023-03-01T08:20:47.538Z,78.26
2023-03-01T08:23:24.109Z,78.11
2023-03-01T08:26:17.018Z,78.14
2023-03-01T08:29:26.915Z,78.35
2023-03-01T08:31:59.591Z,78.21
2023-03-01T08:34:59.205Z,77.12
2023-03-01T08:37:31.230Z,75.86
2023-03-01T08:40:14.662Z,75.39
2023-03-01T08:42:47.668Z,75.47
2023-03-01T08:45:37.312Z,75.74
2023-03-01T08:48:21.584Z,75.10
2023-03-01T08:51:30.359Z,74.29
2023-03-01T08:54:27.722Z,73.75
2023-03-01T08:57:14.263Z,73.59
2023-03-01T08:59:48.789Z,73.19
2023-03-01T09:02:31.360Z,72.18
2023-03-01T09:05:04.468Z,71.18
2023-03-01T09:07:54.627Z,70.16
2023-03-01T09:10:32.084Z,70.00
2023-03-01T09:13:02.644Z,69.85
2023-03-01T09:15:33.841Z,69.74
2023-03-01T09:18:24.135Z,69.47
2023-03-01T09:21:39.784Z,69.16
2023-03-01T09:24:18.749Z,68.33
2023-03-01T09:26:52.354Z,68.06
2023-03-01T09:29:25.382Z,67.60
2023-03-01T09:32:01.774Z,67.87
2023-03-01T09:34:53.331Z,68.18
2023-03-01T09:37:27.341Z,68.40
2023-03-01T09:40:05.642Z,68.58
2023-03-01T09:42:35.895Z,68.47
2023-03-01T09:45:13.473Z,68.64
2023-03-01T09:47:51.574Z,68.65
2023-03-01T09:50:25.379Z,67.42
2023-03-01T09:53:16.202Z,66.49
2023-03-01T09:56:13.749Z,66.73
2023-03-01T09:59:09.989Z,67.00
2023-03-01T10:02:04.586Z,67.50
2023-03-01T10:04:48.406Z,66.92
2023-03-01T10:07:42.806Z,67.27
2023-03-01T10:10:28.907Z,67.14
2023-03-01T10:12:58.437Z,67.36
2023-03-01T10:15:35.429Z,66.95
2023-03-01T10:18:11.549Z,66.82
2023-03-01T10:21:01.883Z,66.03
2023-03-01T10:23:32.991Z,65.67
2023-03-01T10:26:10.699Z,65.96
2023-03-01T10:29:23.760Z,66.49
2023-03-01T10:32:04.487Z,66.28
2023-03-01T10:34:36.766Z,65.81
2023-03-01T10:37:16.764Z,66.29
2023-03-01T10:40:01.161Z,65.54
2023-03-01T10:42:51.346Z,66.21
2023-03-01T10:45:32.791Z,66.11
2023-03-01T10:48:25.023Z,66.80
2023-03-01T10:51:00.537Z,66.41
2023-03-01T10:53:44.932Z,66.32
2023-03-01T10:56:14.965Z,65.80
2023-03-01T10:59:09.441Z,65.16
2023-03-01T11:01:39.630Z,66.16
2023-03-01T11:04:14.067Z,66.58
2023-03-01T11:06:43.080Z,66.96
2023-03-01T11:09:24.270Z,67.56
2023-03-01T11:11:56.983Z,67.86
2023-03-01T11:14:31.598Z,68.33
2023-03-01T11:17:17.381Z,68.34
2023-03-01T11:20:14.422Z,68.65
2023-03-01T11:22:52.005Z,68.81
2023-03-01T11:25:22.147Z,69.76
2023-03-01T11:27:54.734Z,70.49
2023-03-01T11:30:30.773Z,70.94
2023-03-01T11:33:18.588Z,71.20
2023-03-01T11:36:07.310Z,71.32
2023-03-01T11:38:36.971Z,71.43
2023-03-01T11:41:19.790Z,71.45
2023-03-01T11:43:59.923Z,72.19
2023-03-01T11:46:51.164Z,72.43
2023-03-01T11:49:32.046Z,72.29
2023-03-01T11:52:12.810Z,72.39
2023-03-01T11:55:19.285Z,72.53
2023-03-01T11:58:06.813Z,72.99
2023-03-01T12:01:26.905Z,73.51
2023-03-01T12:04:23.781Z,74.11
2023-03-01T12:07:05.166Z,74.53
2023-03-01T12:09:45.809Z,74.32
2023-03-01T12:13:00.160Z,74.15
2023-03-01T12:15:35.290Z,74.42
2023-03-01T12:18:18.771Z,74.35
2023-03-01T12:20:56.634Z,74.78
2023-03-01T12:24:03.866Z,74.84
2023-03-01T12:26:38.248Z,74.83
2023-03-01T12:29:44.410Z,74.73
2023-03-01T12:32:20.242Z,74.70
2023-03-01T12:35:13.940Z,74.83
2023-03-01T12:38:30.809Z,74.72
2023-03-01T12:41:51.247Z,74.86
2023-03-01T12:44:32.831Z,74.72
2023-03-01T12:47:41.253Z,74.59
2023-03-01T12:50:30.684Z,74.77
2023-03-01T12:53:00.007Z,74.50
2023-03-01T12:55:44.420Z,74.31
2023-03-01T12:58:28.273Z,74.86
2023-03-01T13:02:04.611Z,75.15
2023-03-01T13:07:26.794Z,74.10
2023-03-01T13:10:36.463Z,73.97
2023-03-01T13:13:26.224Z,74.32
2023-03-01T13:15:55.113Z,74.58
2023-03-01T13:18:27.095Z,74.94
2023-03-01T13:20:56.972Z,74.87
2023-03-01T13:23:37.847Z,74.79
2023-03-01T13:26:15.984Z,74.82
2023-03-01T13:28:53.474Z,74.62
2023-03-01T13:31:24.114Z,74.65
2023-03-01T13:33:56.037Z,75.52
2023-03-01T13:36:53.712Z,75.31
2023-03-01T13:39:29.659Z,74.92
2023-03-01T13:42:07.144Z,73.63
2023-03-01T13:44:44.538Z,73.21
2023-03-01T13:47:18.737Z,73.54
2023-03-01T13:49:54.688Z,73.54
2023-03-01T13:52:49.918Z,73.73
2023-03-01T13:55:24.934Z,73.66
2023-03-01T13:57:58.914Z,73.98
2023-03-01T14:00:37.661Z,73.69
2023-03-01T14:03:28.268Z,73.83
2023-03-01T14:06:32.681Z,73.36
2023-03-01T14:09:34.646Z,73.84
2023-03-01T14:12:16.157Z,74.45
2023-03-01T14:15:16.548Z,74.24
2023-03-01T14:18:00.798Z,74.13
2023-03-01T14:20:43.829Z,73.85
2023-03-01T14:23:19.792Z,73.61
2023-03-01T14:25:50.166Z,73.53
2023-03-01T14:28:30.865Z,73.74
2023-03-01T14:31:02.836Z,73.85
2023-03-01T14:33:58.727Z,73.40
2023-03-01T14:36:34.753Z,72.95
2023-03-01T14:39:20.643Z,72.29
2023-03-01T14:41:52.541Z,71.99
2023-03-01T14:44:24.450Z,71.49
2023-03-01T14:46:56.489Z,71.26
2023-03-01T14:49:27.584Z,70.81
2023-03-01T14:52:07.722Z,70.87
2023-03-01T14:54:51.268Z,70.10
2023-03-01T14:57:24.427Z,70.39
2023-03-01T14:59:58.436Z,70.36
2023-03-01T15:02:30.321Z,70.07
2023-03-01T15:05:08.938Z,69.92
2023-03-01T15:07:41.435Z,70.09
2023-03-01T15:10:18.767Z,69.91
2023-03-01T15:12:47.705Z,70.07
2023-03-01T15:15:32.052Z,70.17
2023-03-01T15:18:13.865Z,69.41
2023-03-01T15:20:49.980Z,69.30
2023-03-01T15:23:24.184Z,69.22
2023-03-01T15:26:01.731Z,69.12
2023-03-01T15:28:35.169Z,68.73
2023-03-01T15:31:04.773Z,68.40
2023-03-01T15:33:35.884Z,68.29
2023-03-01T15:36:42.402Z,68.46
2023-03-01T15:39:40.310Z,68.42
2023-03-01T15:42:14.221Z,69.11
2023-03-01T15:44:44.430Z,69.28
2023-03-01T15:47:26.302Z,69.30
2023-03-01T15:49:56.017Z,69.14
2023-03-01T15:52:41.018Z,69.17
2023-03-01T15:55:24.086Z,69.35
2023-03-01T15:58:02.170Z,69.36
2023-03-01T16:00:32.056Z,69.63
2023-03-01T16:03:00.395Z,70.18
2023-03-01T16:05:32.236Z,70.35
2023-03-01T16:08:01.904Z,70.08
2023-03-01T16:10:32.902Z,69.94
2023-03-01T16:13:05.839Z,69.73
2023-03-01T16:15:36.345Z,69.92
2023-03-01T16:18:06.706Z,69.87
2023-03-01T16:20:35.879Z,69.78
2023-03-01T16:23:08.206Z,69.88
2023-03-01T16:25:48.403Z,70.24
2023-03-01T16:28:34.501Z,70.27
2023-03-01T16:31:05.674Z,70.21
2023-03-01T16:33:51.081Z,70.40
2023-03-01T16:36:30.057Z,70.30
2023-03-01T16:39:01.926Z,70.30
2023-03-01T16:41:33.192Z,70.20
2023-03-01T16:44:21.232Z,70.48
2023-03-01T16:46:52.240Z,70.62
2023-03-01T16:49:32.755Z,71.13
2023-03-01T16:52:01.398Z,71.02
2023-03-01T16:54:46.252Z,71.12
2023-03-01T16:57:15.972Z,71.10
2023-03-01T16:59:50.139Z,71.02
2023-03-01T17:02:28.391Z,70.92
2023-03-01T17:05:00.829Z,71.22
2023-03-01T17:07:35.501Z,71.45
2023-03-01T17:10:12.721Z,71.80
2023-03-01T17:12:44.454Z,71.89
2023-03-01T17:15:22.133Z,71.87
2023-03-01T17:18:16.115Z,71.80
2023-03-01T17:21:13.494Z,71.82
2023-03-01T17:24:04.555Z,71.85
2023-03-01T17:26:37.670Z,72.30
2023-03-01T17:29:09.228Z,72.68
2023-03-01T17:31:48.938Z,73.11
2023-03-01T17:34:38.238Z,73.04
2023-03-01T17:37:21.058Z,72.85
2023-03-01T17:39:57.424Z,72.97
2023-03-01T17:42:26.828Z,72.53
2023-03-01T17:45:02.371Z,73.09
2023-03-01T17:47:31.165Z,73.35
2023-03-01T17:50:00.873Z,73.52
2023-03-01T17:52:34.683Z,73.75
2023-03-01T17:55:03.568Z,73.76
2023-03-01T17:57:35.333Z,73.69
2023-03-01T18:00:16.347Z,73.87
2023-03-01T18:02:49.508Z,73.85
2023-03-01T18:05:39.287Z,74.08
2023-03-01T18:08:07.757Z,74.12
2023-03-01T18:10:37.743Z,74.67
2023-03-01T18:13:09.771Z,74.88
2023-03-01T18:15:47.331Z,75.08
2023-03-01T18:18:30.432Z,74.95
2023-03-01T18:21:08.477Z,75.05
2023-03-01T18:23:55.888Z,74.93
2023-03-01T18:26:30.131Z,75.05
2023-03-01T18:29:04.525Z,75.17
2023-03-01T18:31:35.696Z,75.37
2023-03-01T18:34:05.517Z,75.45
2023-03-01T18:36:47.933Z,75.29
2023-03-01T18:39:27.609Z,75.25
2023-03-01T18:41:56.801Z,75.28
2023-03-01T18:44:26.720Z,74.78
2023-03-01T18:46:58.328Z,75.16
2023-03-01T18:49:33.837Z,75.16
2023-03-01T18:52:02.540Z,74.77
2023-03-01T18:54:33.567Z,74.43
2023-03-01T18:57:05.014Z,74.09
2023-03-01T18:59:36.473Z,74.04
2023-03-01T19:02:08.427Z,74.11
2023-03-01T19:04:41.558Z,74.38
2023-03-01T19:07:20.956Z,74.76
2023-03-01T19:09:49.846Z,74.80
2023-03-01T19:12:21.772Z,74.53
2023-03-01T19:14:52.553Z,74.39
2023-03-01T19:17:30.753Z,74.30
2023-03-01T19:20:00.260Z,74.33
2023-03-01T19:22:31.709Z,74.41
2023-03-01T19:25:03.191Z,75.05
2023-03-01T19:27:35.844Z,75.35
2023-03-01T19:30:12.530Z,75.18
2023-03-01T19:32:45.506Z,74.83
2023-03-01T19:35:17.874Z,74.93
2023-03-01T19:37:47.507Z,74.77
2023-03-01T19:40:16.425Z,74.72
2023-03-01T19:42:47.831Z,74.80
2023-03-01T19:45:41.686Z,75.08
2023-03-01T19:48:11.631Z,75.05
2023-03-01T19:50:45.328Z,74.95
2023-03-01T19:53:15.192Z,74.80
2023-03-01T19:55:44.563Z,74.83
2023-03-01T19:58:26.520Z,74.91
2023-03-01T20:00:59.153Z,74.95
2023-03-01T20:03:36.314Z,75.03
2023-03-01T20:06:11.547Z,74.92
2023-03-01T20:08:54.031Z,75.02
2023-03-01T20:11:24.467Z,75.22
2023-03-01T20:13:53.560Z,75.30
2023-03-01T20:16:24.830Z,76.01
2023-03-01T20:18:54.315Z,76.15
2023-03-01T20:21:27.517Z,76.53
2023-03-01T20:23:59.675Z,76.83
2023-03-01T20:26:28.884Z,76.62
2023-03-01T20:28:57.772Z,76.91
2023-03-01T20:31:29.994Z,76.88
2023-03-01T20:33:59.664Z,77.41
2023-03-01T20:36:28.429Z,77.60
2023-03-01T20:38:57.727Z,77.99
2023-03-01T20:41:27.030Z,78.25
2023-03-01T20:43:58.889Z,78.15
2023-03-01T20:46:33.193Z,78.34
2023-03-01T20:49:05.377Z,78.52
2023-03-01T20:51:37.344Z,78.79
2023-03-01T20:54:14.705Z,79.14
2023-03-01T20:56:53.555Z,79.11
2023-03-01T20:59:24.697Z,79.16
2023-03-01T21:01:53.411Z,79.01
2023-03-01T21:04:23.096Z,79.26
2023-03-01T21:06:57.777Z,79.03
2023-03-01T21:09:38.493Z,78.80
2023-03-01T21:12:07.182Z,78.92
2023-03-01T21:14:42.547Z,78.61
2023-03-01T21:17:13.350Z,78.25
2023-03-01T21:19:44.685Z,78.02
2023-03-01T21:22:15.410Z,77.31
2023-03-01T21:24:45.378Z,76.69
2023-03-01T21:27:14.151Z,76.33
2023-03-01T21:29:47.557Z,76.47
2023-03-01T21:32:26.145Z,76.46
2023-03-01T21:34:54.865Z,76.46
2023-03-01T21:37:29.288Z,75.97
2023-03-01T21:40:09.504Z,75.90
2023-03-01T21:42:49.902Z,75.53
2023-03-01T21:45:19.098Z,75.32
2023-03-01T21:47:51.366Z,75.69
2023-03-01T21:50:35.100Z,75.68
2023-03-01T21:53:07.577Z,75.55
2023-03-01T21:55:37.697Z,75.24
2023-03-01T21:58:09.140Z,75.23
2023-03-01T22:00:39.999Z,75.37
2023-03-01T22:03:18.765Z,75.51
2023-03-01T22:06:00.913Z,75.77
2023-03-01T22:08:37.169Z,75.88
2023-03-01T22:11:20.393Z,75.98
2023-03-01T22:13:55.753Z,75.65
2023-03-01T22:16:51.922Z,75.51
2023-03-01T22:19:22.163Z,75.80
2023-03-01T22:22:09.005Z,76.11
2023-03-01T22:24:37.791Z,76.62
2023-03-01T22:27:11.674Z,76.93
2023-03-01T22:29:45.209Z,77.22
2023-03-01T22:32:14.021Z,77.29
2023-03-01T22:34:45.461Z,77.22
2023-03-01T22:37:16.795Z,76.92
2023-03-01T22:39:50.503Z,76.93
2023-03-01T22:42:19.702Z,77.58
2023-03-01T22:44:51.254Z,77.39
2023-03-01T22:47:19.631Z,77.61
2023-03-01T22:49:48.219Z,77.16
2023-03-01T22:52:16.698Z,77.28
2023-03-01T22:54:48.560Z,77.06
2023-03-01T22:57:21.750Z,77.20
2023-03-01T23:00:16.832Z,77.27
2023-03-01T23:02:46.765Z,77.19
2023-03-01T23:05:16.277Z,77.32
2023-03-01T23:07:47.132Z,77.33
2023-03-01T23:10:21.397Z,77.48
2023-03-01T23:12:54.655Z,77.53
2023-03-01T23:15:23.418Z,77.49
2023-03-01T23:17:52.300Z,77.25
2023-03-01T23:20:21.592Z,77.34
2023-03-01T23:22:51.006Z,77.10
2023-03-01T23:25:19.786Z,77.41
2023-03-01T23:27:51.855Z,77.56
2023-03-01T23:30:24.196Z,77.06
2023-03-01T23:32:54.518Z,77.00
2023-03-01T23:35:22.972Z,77.18
2023-03-01T23:37:54.960Z,77.03
2023-03-01T23:40:24.556Z,77.05
2023-03-01T23:42:57.658Z,77.55
2023-03-01T23:45:26.038Z,77.70
2023-03-01T23:47:58.767Z,77.66
2023-03-01T23:50:28.651Z,77.79
2023-03-01T23:53:00.300Z,77.91
2023-03-01T23:55:34.030Z,78.18
2023-03-01T23:58:03.007Z,78.67
